createdAt,value
2022-11-03T00:00:12.954Z,97596.09
2022-11-03T00:02:40.000Z,97595.88
2022-11-03T00:05:27.112Z,97596.09
2022-11-03T00:07:54.258Z,97599.47
2022-11-03T00:10:21.112Z,97608.03
2022-11-03T00:12:48.066Z,97609.97
2022-11-03T00:15:14.883Z,97611.16
2022-11-03T00:17:41.860Z,97613.75
2022-11-03T00:20:09.374Z,97612.09
2022-11-03T00:22:36.359Z,97618.31
2022-11-03T00:25:03.131Z,97616.16
2022-11-03T00:27:30.124Z,97616.72
2022-11-03T00:29:56.982Z,97614.94
2022-11-03T00:32:24.005Z,97617.56
2022-11-03T00:34:50.962Z,97617.56
2022-11-03T00:37:18.185Z,97620.19
2022-11-03T00:39:45.046Z,97619.59
2022-11-03T00:42:11.801Z,97617.47
2022-11-03T00:44:38.722Z,97610.41
2022-11-03T00:47:05.551Z,97620.44
2022-11-03T00:49:32.477Z,97617.13
2022-11-03T00:52:02.134Z,97618.91
2022-11-03T00:54:29.100Z,97609.00
2022-11-03T00:56:55.851Z,97620.34
2022-11-03T00:59:22.649Z,97622.81
2022-11-03T01:01:49.502Z,97623.09
2022-11-03T01:04:35.889Z,97612.31
2022-11-03T01:07:03.587Z,97617.72
2022-11-03T01:09:31.543Z,97617.94
2022-11-03T01:12:02.713Z,97622.59
2022-11-03T01:14:34.327Z,97614.72
2022-11-03T01:17:01.718Z,97622.97
2022-11-03T01:19:28.485Z,97627.59
2022-11-03T01:21:55.374Z,97626.03
2022-11-03T01:24:22.552Z,97631.66
2022-11-03T01:26:49.622Z,97622.22
2022-11-03T01:29:16.402Z,97626.88
2022-11-03T01:31:43.364Z,97628.56
2022-11-03T01:34:14.339Z,97631.78
2022-11-03T01:36:41.141Z,97630.00
2022-11-03T01:39:10.757Z,97631.28
2022-11-03T01:41:37.572Z,97630.81
2022-11-03T01:44:07.386Z,97630.81
2022-11-03T01:46:55.652Z,97641.91
2022-11-03T01:49:31.272Z,97631.19
2022-11-03T01:52:02.326Z,97639.50
2022-11-03T01:54:30.202Z,97636.91
2022-11-03T01:56:57.821Z,97640.47
2022-11-03T01:59:25.449Z,97642.50
2022-11-03T02:01:52.415Z,97648.34
2022-11-03T02:04:29.815Z,97649.53
2022-11-03T02:07:05.899Z,97648.56
2022-11-03T02:09:32.742Z,97650.56
2022-11-03T02:12:08.639Z,97653.06
2022-11-03T02:14:43.042Z,97661.91
2022-11-03T02:17:12.885Z,97662.59
2022-11-03T02:19:42.343Z,97666.19
2022-11-03T02:22:21.363Z,97656.53
2022-11-03T02:24:54.023Z,97656.88
2022-11-03T02:27:21.768Z,97661.16
2022-11-03T02:29:49.104Z,97661.41
2022-11-03T02:32:21.827Z,97665.91
2022-11-03T02:34:51.159Z,97676.34
2022-11-03T02:37:20.703Z,97679.81
2022-11-03T02:39:49.790Z,97676.44
2022-11-03T02:42:18.790Z,97682.44
2022-11-03T02:44:49.290Z,97678.38
2022-11-03T02:47:17.805Z,97681.22
2022-11-03T02:52:35.916Z,97688.13
2022-11-03T02:55:11.682Z,97687.28
2022-11-03T02:57:44.366Z,97687.97
2022-11-03T03:00:11.805Z,97684.63
2022-11-03T03:02:46.713Z,97695.09
2022-11-03T03:05:14.798Z,97691.09
2022-11-03T03:07:47.112Z,97690.06
2022-11-03T03:10:21.034Z,97692.22
2022-11-03T03:12:49.553Z,97700.06
2022-11-03T03:15:17.355Z,97704.13
2022-11-03T03:17:52.791Z,97705.19
2022-11-03T03:20:23.407Z,97698.16
2022-11-03T03:22:55.421Z,97708.59
2022-11-03T03:25:22.315Z,97704.03
2022-11-03T03:27:52.018Z,97709.97
2022-11-03T03:30:19.222Z,97716.16
2022-11-03T03:32:50.444Z,97715.56
2022-11-03T03:35:19.739Z,97718.78
2022-11-03T03:37:48.858Z,97708.06
2022-11-03T03:40:20.910Z,97727.59
2022-11-03T03:42:49.193Z,97735.97
2022-11-03T03:45:16.815Z,97737.31
2022-11-03T03:47:44.410Z,97736.00
2022-11-03T03:50:11.362Z,97733.25
2022-11-03T03:52:38.413Z,97732.84
2022-11-03T03:55:07.974Z,97732.16
2022-11-03T03:57:36.019Z,97737.31
2022-11-03T04:00:03.214Z,97733.25
2022-11-03T04:02:30.206Z,97739.53
2022-11-03T04:04:58.630Z,97743.50
2022-11-03T04:07:44.087Z,97744.75
2022-11-03T04:10:14.192Z,97739.22
2022-11-03T04:13:00.177Z,97740.16
2022-11-03T04:15:45.951Z,97741.19
2022-11-03T04:18:31.168Z,97742.03
2022-11-03T04:21:16.570Z,97717.31
2022-11-03T04:23:43.406Z,97741.72
2022-11-03T04:26:15.171Z,97736.50
2022-11-03T04:28:42.673Z,97740.78
2022-11-03T04:31:13.205Z,97734.41
2022-11-03T04:33:40.504Z,97739.19
2022-11-03T04:36:19.581Z,97734.78
2022-11-03T04:38:46.942Z,97732.75
2022-11-03T04:41:18.189Z,97734.63
2022-11-03T04:43:46.233Z,97738.69
2022-11-03T04:46:16.544Z,97749.16
2022-11-03T04:48:47.910Z,97749.16
2022-11-03T04:51:19.899Z,97749.16
2022-11-03T04:53:58.984Z,97755.25
2022-11-03T04:56:26.391Z,97751.69
2022-11-03T04:58:53.898Z,97754.41
2022-11-03T05:01:24.224Z,97754.41
2022-11-03T05:03:53.870Z,97761.75
2022-11-03T05:06:23.671Z,97756.31
2022-11-03T05:08:52.569Z,97758.94
2022-11-03T05:11:21.597Z,97757.03
2022-11-03T05:13:48.600Z,97767.63
2022-11-03T05:16:16.358Z,97767.41
2022-11-03T05:18:45.179Z,97761.97
2022-11-03T05:21:13.865Z,97768.25
2022-11-03T05:23:42.635Z,97774.19
2022-11-03T05:26:14.898Z,97769.19
2022-11-03T05:28:52.564Z,97785.63
2022-11-03T05:31:22.270Z,97785.63
2022-11-03T05:33:50.461Z,97784.69
2022-11-03T05:36:19.909Z,97790.88
2022-11-03T05:38:46.913Z,97786.88
2022-11-03T05:41:16.843Z,97787.72
2022-11-03T05:43:43.854Z,97795.47
2022-11-03T05:46:11.699Z,97798.59
2022-11-03T05:48:41.361Z,97798.41
2022-11-03T05:51:16.705Z,97808.47
2022-11-03T05:53:43.719Z,97808.22
2022-11-03T05:56:16.259Z,97804.78
2022-11-03T05:58:43.670Z,97805.47
2022-11-03T06:01:17.102Z,97813.66
2022-11-03T06:03:44.005Z,97813.22
2022-11-03T06:06:16.249Z,97815.41
2022-11-03T06:08:45.901Z,97815.47
2022-11-03T06:11:20.115Z,97819.06
2022-11-03T06:13:47.072Z,97823.63
2022-11-03T06:16:16.881Z,97824.78
2022-11-03T06:18:43.657Z,97826.09
2022-11-03T06:21:14.412Z,97825.97
2022-11-03T06:23:41.614Z,97832.34
2022-11-03T06:26:16.614Z,97830.63
2022-11-03T06:28:43.342Z,97825.53
2022-11-03T06:31:30.483Z,97835.34
2022-11-03T06:34:00.270Z,97822.16
2022-11-03T06:36:30.666Z,97824.81
2022-11-03T06:39:01.648Z,97832.50
2022-11-03T06:41:30.221Z,97837.78
2022-11-03T06:43:58.454Z,97836.72
2022-11-03T06:46:26.318Z,97835.16
2022-11-03T06:48:54.607Z,97834.41
2022-11-03T06:51:26.249Z,97831.13
2022-11-03T06:53:54.213Z,97832.00
2022-11-03T06:56:23.109Z,97831.50
2022-11-03T06:58:51.033Z,97825.13
2022-11-03T07:01:29.436Z,97824.78
2022-11-03T07:04:01.983Z,97826.84
2022-11-03T07:06:36.538Z,97837.50
2022-11-03T07:09:05.127Z,97832.28
2022-11-03T07:11:36.287Z,97835.91
2022-11-03T07:14:09.503Z,97831.19
2022-11-03T07:16:38.464Z,97833.16
2022-11-03T07:19:07.303Z,97833.13
2022-11-03T07:21:34.237Z,97821.63
2022-11-03T07:24:02.613Z,97831.31
2022-11-03T07:26:29.648Z,97828.19
2022-11-03T07:28:56.515Z,97824.94
2022-11-03T07:31:25.425Z,97827.47
2022-11-03T07:34:01.226Z,97833.19
2022-11-03T07:36:31.230Z,97835.56
2022-11-03T07:39:00.287Z,97825.09
2022-11-03T07:41:32.910Z,97821.59
2022-11-03T07:44:02.460Z,97823.69
2022-11-03T07:46:29.563Z,97813.19
2022-11-03T07:48:57.557Z,97813.63
2022-11-03T07:51:35.553Z,97808.75
2022-11-03T07:54:04.082Z,97810.38
2022-11-03T07:56:34.392Z,97808.44
2022-11-03T07:59:11.942Z,97815.31
2022-11-03T08:01:42.456Z,97810.22
2022-11-03T08:04:17.146Z,97803.94
2022-11-03T08:06:44.459Z,97801.50
2022-11-03T08:09:12.280Z,97794.50
2022-11-03T08:11:39.687Z,97803.81
2022-11-03T08:14:06.551Z,97791.22
2022-11-03T08:16:33.267Z,97792.00
2022-11-03T08:19:00.383Z,97793.50
2022-11-03T08:21:27.183Z,97787.81
2022-11-03T08:23:54.190Z,97790.81
2022-11-03T08:26:21.031Z,97788.13
2022-11-03T08:28:55.547Z,97788.44
2022-11-03T08:31:22.570Z,97779.75
2022-11-03T08:33:49.736Z,97785.66
2022-11-03T08:36:17.436Z,97776.97
2022-11-03T08:38:44.361Z,97782.78
2022-11-03T08:41:11.226Z,97782.59
2022-11-03T08:43:38.542Z,97770.25
2022-11-03T08:46:13.865Z,97777.91
2022-11-03T08:48:44.551Z,97776.34
2022-11-03T08:51:14.159Z,97770.88
2022-11-03T08:53:44.886Z,97772.78
2022-11-03T08:56:13.190Z,97773.38
2022-11-03T08:58:41.405Z,97770.63
2022-11-03T09:01:08.320Z,97777.09
2022-11-03T09:03:35.536Z,97763.56
2022-11-03T09:06:02.476Z,97766.50
2022-11-03T09:11:16.100Z,97759.88
2022-11-03T09:13:42.835Z,97752.97
2022-11-03T09:16:09.995Z,97754.72
2022-11-03T09:18:36.852Z,97746.16
2022-11-03T09:21:03.705Z,97744.34
2022-11-03T09:23:30.518Z,97748.78
2022-11-03T09:25:57.400Z,97746.28
2022-11-03T09:28:24.204Z,97739.94
2022-11-03T09:30:51.288Z,97728.81
2022-11-03T09:33:18.051Z,97732.94
2022-11-03T09:35:44.959Z,97735.91
2022-11-03T09:38:11.810Z,97726.44
2022-11-03T09:40:38.753Z,97715.94
2022-11-03T09:43:05.901Z,97717.59
2022-11-03T09:45:33.070Z,97717.69
2022-11-03T09:47:59.832Z,97704.59
2022-11-03T09:50:26.754Z,97707.00
2022-11-03T09:52:55.504Z,97705.59
2022-11-03T09:55:25.540Z,97704.47
2022-11-03T09:57:57.795Z,97701.44
2022-11-03T10:00:25.428Z,97694.97
2022-11-03T10:02:52.216Z,97687.75
2022-11-03T10:05:26.449Z,97689.09
2022-11-03T10:10:26.942Z,97678.72
2022-11-03T10:12:53.999Z,97682.78
2022-11-03T10:15:22.227Z,97678.09
2022-11-03T10:17:50.813Z,97676.72
2022-11-03T10:20:22.421Z,97670.09
2022-11-03T10:22:52.075Z,97665.38
2022-11-03T10:25:29.516Z,97658.38
2022-11-03T10:28:16.043Z,97649.19
2022-11-03T10:31:15.480Z,97646.78
2022-11-03T10:33:51.406Z,97645.59
2022-11-03T10:36:18.375Z,97630.03
2022-11-03T10:38:45.300Z,97631.34
2022-11-03T10:41:13.726Z,97624.34
2022-11-03T10:43:41.495Z,97622.25
2022-11-03T10:46:44.533Z,97621.84
2022-11-03T10:49:14.684Z,97617.81
2022-11-03T10:51:42.767Z,97612.44
2022-11-03T10:54:12.217Z,97607.75
2022-11-03T10:56:39.037Z,97607.38
2022-11-03T10:59:06.350Z,97602.00
2022-11-03T11:01:33.529Z,97598.94
2022-11-03T11:04:00.635Z,97592.13
2022-11-03T11:06:29.779Z,97587.19
2022-11-03T11:09:03.379Z,97589.94
2022-11-03T11:11:30.263Z,97586.66
2022-11-03T11:14:16.000Z,97579.09
2022-11-03T11:16:53.323Z,97578.31
2022-11-03T11:19:21.432Z,97578.91
2022-11-03T11:21:48.319Z,97572.53
2022-11-03T11:24:35.152Z,97571.13
2022-11-03T11:27:02.074Z,97577.34
2022-11-03T11:29:35.556Z,97565.81
2022-11-03T11:32:22.485Z,97562.53
2022-11-03T11:34:49.322Z,97564.13
2022-11-03T11:37:16.113Z,97565.38
2022-11-03T11:39:46.192Z,97560.63
2022-11-03T11:42:15.955Z,97552.19
2022-11-03T11:44:42.715Z,97550.53
2022-11-03T11:47:18.501Z,97555.03
2022-11-03T11:49:45.568Z,97558.31
2022-11-03T11:52:15.499Z,97552.56
2022-11-03T11:54:45.877Z,97554.22
2022-11-03T11:57:20.522Z,97548.44
2022-11-03T11:59:47.666Z,97544.94
2022-11-03T12:02:23.510Z,97540.25
2022-11-03T12:04:55.074Z,97527.88
2022-11-03T12:07:35.139Z,97538.56
2022-11-03T12:10:20.692Z,97533.56
2022-11-03T12:12:47.874Z,97533.94
2022-11-03T12:15:33.402Z,97532.94
2022-11-03T12:18:02.398Z,97524.50
2022-11-03T12:20:36.383Z,97530.25
2022-11-03T12:23:03.363Z,97529.84
2022-11-03T12:25:34.407Z,97523.66
2022-11-03T12:28:01.542Z,97520.72
2022-11-03T12:30:28.333Z,97528.97
2022-11-03T12:32:55.428Z,97525.59
2022-11-03T12:35:22.413Z,97520.47
2022-11-03T12:37:49.306Z,97523.97
2022-11-03T12:40:16.311Z,97528.97
2022-11-03T12:42:43.402Z,97529.72
2022-11-03T12:45:10.697Z,97524.97
2022-11-03T12:47:37.458Z,97531.31
2022-11-03T12:50:04.831Z,97533.34
2022-11-03T12:52:31.589Z,97531.09
2022-11-03T12:54:58.516Z,97532.09
2022-11-03T12:57:25.844Z,97537.47
2022-11-03T12:59:52.802Z,97531.25
2022-11-03T13:02:19.718Z,97526.94
2022-11-03T13:04:46.586Z,97528.69
2022-11-03T13:07:13.534Z,97527.25
2022-11-03T13:09:40.315Z,97527.31
2022-11-03T13:12:25.676Z,97534.31
2022-11-03T13:14:52.588Z,97533.06
2022-11-03T13:17:19.474Z,97541.34
2022-11-03T13:19:49.346Z,97539.44
2022-11-03T13:22:18.543Z,97541.25
2022-11-03T13:24:48.196Z,97533.19
2022-11-03T13:27:15.010Z,97532.75
2022-11-03T13:29:42.637Z,97532.91
2022-11-03T13:32:09.788Z,97536.78
2022-11-03T13:34:36.901Z,97535.47
2022-11-03T13:37:05.904Z,97537.44
2022-11-03T13:39:33.148Z,97527.66
2022-11-03T13:42:00.176Z,97527.06
2022-11-03T13:44:27.173Z,97532.19
2022-11-03T13:46:57.316Z,97530.34
2022-11-03T13:52:15.053Z,97528.25
2022-11-03T14:00:17.243Z,97538.50
2022-11-03T14:05:31.280Z,97531.84
2022-11-03T14:07:58.255Z,97537.56
2022-11-03T14:10:25.155Z,97533.63
2022-11-03T14:12:54.657Z,97538.97
2022-11-03T14:15:21.563Z,97537.03
2022-11-03T14:17:48.441Z,97545.19
2022-11-03T14:20:15.660Z,97540.22
2022-11-03T14:22:42.459Z,97543.69
2022-11-03T14:25:10.239Z,97528.78
2022-11-03T14:27:38.246Z,97547.41
2022-11-03T14:30:05.380Z,97540.31
2022-11-03T14:32:32.278Z,97538.13
2022-11-03T14:34:59.142Z,97532.72
2022-11-03T14:37:26.871Z,97541.72
2022-11-03T14:39:54.004Z,97542.03
2022-11-03T14:42:21.600Z,97541.50
2022-11-03T14:44:48.783Z,97538.91
2022-11-03T14:47:22.178Z,97548.59
2022-11-03T14:49:49.532Z,97544.91
2022-11-03T14:52:17.055Z,97544.06
2022-11-03T14:54:44.259Z,97541.75
2022-11-03T14:57:11.455Z,97550.22
2022-11-03T14:59:38.340Z,97552.03
2022-11-03T15:02:06.413Z,97551.84
2022-11-03T15:04:33.497Z,97545.31
2022-11-03T15:07:00.660Z,97546.63
2022-11-03T15:09:27.999Z,97558.03
2022-11-03T15:11:54.828Z,97552.63
2022-11-03T15:14:21.936Z,97559.88
2022-11-03T15:16:48.847Z,97558.41
2022-11-03T15:19:15.829Z,97555.94
2022-11-03T15:21:42.845Z,97563.25
2022-11-03T15:26:56.877Z,97563.59
2022-11-03T15:29:24.369Z,97571.41
2022-11-03T15:31:54.267Z,97575.19
2022-11-03T15:34:26.655Z,97577.94
2022-11-03T15:36:54.091Z,97577.72
2022-11-03T15:39:20.972Z,97581.28
2022-11-03T15:41:47.876Z,97582.88
2022-11-03T15:44:15.483Z,97571.88
2022-11-03T15:46:42.401Z,97580.25
2022-11-03T15:49:09.229Z,97579.38
2022-11-03T15:51:36.195Z,97586.22
2022-11-03T15:54:03.015Z,97581.28
2022-11-03T15:56:30.327Z,97576.09
2022-11-03T15:58:57.286Z,97578.84
2022-11-03T16:01:24.950Z,97577.94
2022-11-03T16:03:52.016Z,97581.38
2022-11-03T16:06:19.936Z,97579.63
2022-11-03T16:08:46.816Z,97584.66
2022-11-03T16:11:14.253Z,97576.53
2022-11-03T16:13:41.343Z,97583.09
2022-11-03T16:16:08.341Z,97590.50
2022-11-03T16:18:35.345Z,97586.78
2022-11-03T16:21:02.206Z,97583.38
2022-11-03T16:23:29.257Z,97587.06
2022-11-03T16:25:56.051Z,97583.47
2022-11-03T16:28:23.509Z,97585.91
2022-11-03T16:30:54.295Z,97585.66
2022-11-03T16:33:21.640Z,97585.66
2022-11-03T16:35:48.854Z,97577.78
2022-11-03T16:38:15.742Z,97579.50
2022-11-03T16:40:42.926Z,97586.34
2022-11-03T16:43:10.680Z,97580.78
2022-11-03T16:45:38.306Z,97583.03
2022-11-03T16:48:06.305Z,97584.31
2022-11-03T16:50:33.695Z,97578.78
2022-11-03T16:53:00.586Z,97584.50
2022-11-03T16:55:27.464Z,97581.88
2022-11-03T16:57:54.266Z,97582.41
2022-11-03T17:00:21.307Z,97584.50
2022-11-03T17:02:48.617Z,97581.91
2022-11-03T17:05:16.974Z,97581.09
2022-11-03T17:07:45.391Z,97583.59
2022-11-03T17:10:15.755Z,97589.16
2022-11-03T17:12:42.864Z,97575.84
2022-11-03T17:15:10.549Z,97576.09
2022-11-03T17:17:45.532Z,97577.50
2022-11-03T17:20:21.571Z,97579.13
2022-11-03T17:22:48.338Z,97571.78
2022-11-03T17:25:15.159Z,97574.13
2022-11-03T17:27:46.442Z,97578.97
2022-11-03T17:30:24.252Z,97576.88
2022-11-03T17:32:53.462Z,97581.59
2022-11-03T17:35:24.943Z,97575.47
2022-11-03T17:37:52.431Z,97570.47
2022-11-03T17:40:19.404Z,97569.34
2022-11-03T17:42:46.393Z,97568.78
2022-11-03T17:45:17.345Z,97558.66
2022-11-03T17:47:44.578Z,97567.06
2022-11-03T17:50:16.457Z,97559.59
2022-11-03T17:52:44.020Z,97560.41
2022-11-03T17:55:16.535Z,97555.41
2022-11-03T17:57:43.928Z,97555.09
2022-11-03T18:00:15.177Z,97560.53
2022-11-03T18:02:42.412Z,97550.50
2022-11-03T18:05:15.415Z,97556.44
2022-11-03T18:07:45.298Z,97547.03
2022-11-03T18:10:12.259Z,97551.72
2022-11-03T18:13:02.641Z,97543.38
2022-11-03T18:15:30.933Z,97539.34
2022-11-03T18:18:25.295Z,97543.16
2022-11-03T18:20:53.890Z,97545.63
2022-11-03T18:23:22.462Z,97546.03
2022-11-03T18:26:00.330Z,97544.03
2022-11-03T18:28:28.447Z,97539.88
2022-11-03T18:30:56.697Z,97542.88
2022-11-03T18:33:26.163Z,97545.03
2022-11-03T18:35:53.884Z,97536.69
2022-11-03T18:38:22.575Z,97537.03
2022-11-03T18:40:49.849Z,97530.59
2022-11-03T18:43:19.061Z,97535.03
2022-11-03T18:45:46.347Z,97531.56
2022-11-03T18:48:31.156Z,97537.66
2022-11-03T18:51:19.594Z,97528.94
2022-11-03T18:53:46.778Z,97526.44
2022-11-03T18:56:20.571Z,97524.66
2022-11-03T18:58:48.858Z,97519.66
2022-11-03T19:01:21.881Z,97525.84
2022-11-03T19:03:49.093Z,97523.84
2022-11-03T19:06:16.757Z,97519.56
2022-11-03T19:08:45.466Z,97524.25
2022-11-03T19:11:13.574Z,97528.81
2022-11-03T19:13:47.752Z,97530.72
2022-11-03T19:16:17.496Z,97526.44
2022-11-03T19:18:45.136Z,97521.66
2022-11-03T19:21:23.830Z,97527.75
2022-11-03T19:23:55.500Z,97527.19
2022-11-03T19:26:27.207Z,97527.19
2022-11-03T19:28:59.615Z,97533.41
2022-11-03T19:31:31.684Z,97530.28
2022-11-03T19:33:59.194Z,97532.38
2022-11-03T19:36:26.984Z,97522.94
2022-11-03T19:38:54.115Z,97530.09
2022-11-03T19:41:39.596Z,97527.84
2022-11-03T19:44:10.326Z,97532.75
2022-11-03T19:46:38.310Z,97523.31
2022-11-03T19:49:06.213Z,97525.84
2022-11-03T19:51:37.088Z,97521.81
2022-11-03T19:54:10.588Z,97515.81
2022-11-03T19:56:38.473Z,97516.59
2022-11-03T19:59:09.224Z,97518.25
2022-11-03T20:01:36.143Z,97518.63
2022-11-03T20:04:03.193Z,97526.75
2022-11-03T20:06:30.669Z,97528.31
2022-11-03T20:08:57.503Z,97519.72
2022-11-03T20:11:24.650Z,97527.59
2022-11-03T20:13:51.643Z,97515.78
2022-11-03T20:16:18.591Z,97522.00
2022-11-03T20:18:45.575Z,97518.19
2022-11-03T20:21:16.048Z,97517.34
2022-11-03T20:23:43.216Z,97516.19
2022-11-03T20:26:29.269Z,97516.41
2022-11-03T20:28:56.543Z,97514.03
2022-11-03T20:31:23.986Z,97516.19
2022-11-03T20:33:51.218Z,97505.56
2022-11-03T20:36:19.344Z,97519.78
2022-11-03T20:38:52.076Z,97510.94
2022-11-03T20:41:19.386Z,97513.22
2022-11-03T20:43:47.617Z,97510.59
2022-11-03T20:46:17.349Z,97503.78
2022-11-03T20:48:44.197Z,97509.63
2022-11-03T20:51:15.326Z,97507.84
2022-11-03T20:53:43.271Z,97503.31
2022-11-03T20:59:03.583Z,97500.09
2022-11-03T21:01:39.846Z,97490.81
2022-11-03T21:04:10.476Z,97497.72
2022-11-03T21:06:37.710Z,97501.44
2022-11-03T21:09:04.547Z,97492.56
2022-11-03T21:11:36.482Z,97488.38
2022-11-03T21:14:08.486Z,97490.88
2022-11-03T21:16:54.708Z,97485.53
2022-11-03T21:19:44.007Z,97485.38
2022-11-03T21:25:02.391Z,97479.09
2022-11-03T21:27:29.436Z,97469.41
2022-11-03T21:30:00.227Z,97465.13
2022-11-03T21:32:27.535Z,97464.31
2022-11-03T21:35:01.454Z,97466.81
2022-11-03T21:37:44.476Z,97466.81
2022-11-03T21:40:11.778Z,97467.25
2022-11-03T21:42:57.118Z,97462.97
2022-11-03T21:45:23.922Z,97455.94
2022-11-03T21:48:13.629Z,97452.03
2022-11-03T21:50:41.862Z,97454.28
2022-11-03T21:53:09.332Z,97445.22
2022-11-03T21:55:36.859Z,97446.28
2022-11-03T21:58:04.189Z,97448.66
2022-11-03T22:00:34.941Z,97444.84
2022-11-03T22:03:02.618Z,97434.38
2022-11-03T22:05:34.472Z,97437.81
2022-11-03T22:08:02.346Z,97431.16
2022-11-03T22:10:40.129Z,97423.28
2022-11-03T22:13:07.754Z,97426.75
2022-11-03T22:15:53.459Z,97417.34
2022-11-03T22:18:20.292Z,97411.50
2022-11-03T22:21:05.509Z,97411.50
2022-11-03T22:23:50.766Z,97410.53
2022-11-03T22:26:35.854Z,97417.81
2022-11-03T22:29:21.052Z,97413.53
2022-11-03T22:31:47.813Z,97397.81
2022-11-03T22:34:33.399Z,97405.16
2022-11-03T22:37:00.293Z,97394.22
2022-11-03T22:39:48.171Z,97394.22
2022-11-03T22:42:33.554Z,97383.59
2022-11-03T22:45:18.996Z,97371.00
2022-11-03T22:47:48.913Z,97373.72
2022-11-03T22:50:24.771Z,97364.94
2022-11-03T22:52:51.665Z,97369.56
2022-11-03T22:55:18.356Z,97365.75
2022-11-03T22:57:47.259Z,97371.22
2022-11-03T23:00:14.425Z,97374.69
2022-11-03T23:02:41.342Z,97384.19
2022-11-03T23:05:08.244Z,97378.34
2022-11-03T23:07:40.805Z,97370.72
2022-11-03T23:10:08.765Z,97371.00
2022-11-03T23:12:35.736Z,97368.59
2022-11-03T23:15:21.222Z,97365.84
2022-11-03T23:18:07.856Z,97357.63
2022-11-03T23:21:03.432Z,97354.16
2022-11-03T23:23:48.733Z,97348.34
2022-11-03T23:26:16.533Z,97351.31
2022-11-03T23:28:43.786Z,97349.75
2022-11-03T23:31:11.577Z,97342.63
2022-11-03T23:33:38.745Z,97349.28
2022-11-03T23:36:09.914Z,97353.34
2022-11-03T23:38:37.463Z,97351.44
2022-11-03T23:41:08.869Z,97347.03
2022-11-03T23:43:57.538Z,97341.44
2022-11-03T23:46:44.980Z,97338.09
2022-11-03T23:49:12.095Z,97336.66
2022-11-03T23:51:39.111Z,97340.22
2022-11-03T23:54:07.376Z,97335.00
2022-11-03T23:56:53.955Z,97331.91
2022-11-03T23:59:20.746Z,97338.66
